createdAt,value
2022-12-23T00:00:45.272Z,56.96
2022-12-23T00:03:12.266Z,57.28
2022-12-23T00:05:40.682Z,57.36
2022-12-23T00:08:08.402Z,57.53
2022-12-23T00:10:39.529Z,57.61
2022-12-23T00:13:25.791Z,57.43
2022-12-23T00:16:12.664Z,57.63
2022-12-23T00:18:40.674Z,57.33
2022-12-23T00:21:14.865Z,57.48
2022-12-23T00:23:46.054Z,57.43
2022-12-23T00:26:22.625Z,57.61
2022-12-23T00:28:49.978Z,57.61
2022-12-23T00:31:18.688Z,57.78
2022-12-23T00:33:48.750Z,57.96
2022-12-23T00:36:24.380Z,57.75
2022-12-23T00:39:10.129Z,57.56
2022-12-23T00:41:56.890Z,57.75
2022-12-23T00:44:24.128Z,58.36
2022-12-23T00:46:50.990Z,58.92
2022-12-23T00:49:37.954Z,59.44
2022-12-23T00:52:07.349Z,59.50
2022-12-23T00:54:34.175Z,59.83
2022-12-23T00:57:01.596Z,60.04
2022-12-23T00:59:28.405Z,60.21
2022-12-23T01:02:30.584Z,60.54
2022-12-23T01:05:15.836Z,60.38
2022-12-23T01:07:42.703Z,60.33
2022-12-23T01:10:09.937Z,60.01
2022-12-23T01:12:36.756Z,59.94
2022-12-23T01:15:03.756Z,60.11
2022-12-23T01:17:30.507Z,60.04
2022-12-23T01:19:57.250Z,59.81
2022-12-23T01:22:24.016Z,59.71
2022-12-23T01:24:50.803Z,59.62
2022-12-23T01:27:17.559Z,59.32
2022-12-23T01:29:45.759Z,59.59
2022-12-23T01:32:12.596Z,59.52
2022-12-23T01:34:39.355Z,59.18
2022-12-23T01:37:06.193Z,59.16
2022-12-23T01:39:33.072Z,58.80
2022-12-23T01:42:18.201Z,58.98
2022-12-23T01:45:06.095Z,58.93
2022-12-23T01:47:37.805Z,58.78
2022-12-23T01:50:19.535Z,58.76
2022-12-23T01:53:04.755Z,58.76
2022-12-23T01:55:49.955Z,58.66
2022-12-23T01:58:21.313Z,58.71
2022-12-23T02:01:07.394Z,58.61
2022-12-23T02:03:43.464Z,58.59
2022-12-23T02:06:37.844Z,58.50
2022-12-23T02:09:31.186Z,58.62
2022-12-23T02:12:31.871Z,58.39
2022-12-23T02:15:52.021Z,58.70
2022-12-23T02:18:33.914Z,58.49
2022-12-23T02:21:22.580Z,58.71
2022-12-23T02:24:24.927Z,59.08
2022-12-23T02:27:20.672Z,59.03
2022-12-23T02:30:28.907Z,58.92
2022-12-23T02:33:19.440Z,58.94
2022-12-23T02:36:28.585Z,59.05
2022-12-23T02:39:07.880Z,58.82
2022-12-23T02:42:05.981Z,58.77
2022-12-23T02:45:10.874Z,58.77
2022-12-23T02:47:48.071Z,58.67
2022-12-23T02:50:20.462Z,58.68
2022-12-23T02:52:49.509Z,58.63
2022-12-23T02:55:22.748Z,58.84
2022-12-23T02:57:51.355Z,58.60
2022-12-23T03:00:18.777Z,58.66
2022-12-23T03:02:45.806Z,58.50
2022-12-23T03:05:41.478Z,58.63
2022-12-23T03:08:25.670Z,58.71
2022-12-23T03:11:01.343Z,58.56
2022-12-23T03:13:48.165Z,58.56
2022-12-23T03:16:24.265Z,58.71
2022-12-23T03:19:31.182Z,58.83
2022-12-23T03:22:35.827Z,58.76
2022-12-23T03:25:32.007Z,58.56
2022-12-23T03:28:15.307Z,58.75
2022-12-23T03:30:48.199Z,58.71
2022-12-23T03:33:27.739Z,58.91
2022-12-23T03:36:05.213Z,58.96
2022-12-23T03:38:35.769Z,59.08
2022-12-23T03:41:14.085Z,59.30
2022-12-23T03:43:54.758Z,59.45
2022-12-23T03:46:34.784Z,59.26
2022-12-23T03:49:08.579Z,59.49
2022-12-23T03:51:52.426Z,59.67
2022-12-23T03:54:31.424Z,59.36
2022-12-23T03:57:04.679Z,59.46
2022-12-23T03:59:36.337Z,59.36
2022-12-23T04:02:55.072Z,59.41
2022-12-23T04:05:27.422Z,59.05
2022-12-23T04:08:05.360Z,59.09
2022-12-23T04:10:32.351Z,58.95
2022-12-23T04:12:59.427Z,58.95
2022-12-23T04:15:27.875Z,58.99
2022-12-23T04:17:56.857Z,59.01
2022-12-23T04:20:24.801Z,58.78
2022-12-23T04:22:51.640Z,58.80
2022-12-23T04:25:18.540Z,59.06
2022-12-23T04:27:45.320Z,58.67
2022-12-23T04:30:13.704Z,58.72
2022-12-23T04:32:41.535Z,58.56
2022-12-23T04:35:09.736Z,58.59
2022-12-23T04:37:37.374Z,58.44
2022-12-23T04:40:05.385Z,58.80
2022-12-23T04:42:32.212Z,58.54
2022-12-23T04:44:59.143Z,58.47
2022-12-23T04:47:26.569Z,58.43
2022-12-23T04:49:53.470Z,58.61
2022-12-23T04:52:20.565Z,58.59
2022-12-23T04:54:47.369Z,58.80
2022-12-23T04:57:15.845Z,58.72
2022-12-23T04:59:42.709Z,58.81
2022-12-23T05:02:10.391Z,58.93
2022-12-23T05:04:37.560Z,58.80
2022-12-23T05:07:04.407Z,58.76
2022-12-23T05:09:31.300Z,58.52
2022-12-23T05:11:58.054Z,58.54
2022-12-23T05:14:24.895Z,58.83
2022-12-23T05:16:51.718Z,58.77
2022-12-23T05:19:18.528Z,58.57
2022-12-23T05:21:45.397Z,58.54
2022-12-23T05:24:12.263Z,58.34
2022-12-23T05:26:39.053Z,58.42
2022-12-23T05:29:06.073Z,58.27
2022-12-23T05:31:33.261Z,58.31
2022-12-23T05:34:06.024Z,58.01
2022-12-23T05:36:33.494Z,58.00
2022-12-23T05:39:00.293Z,57.99
2022-12-23T05:41:27.054Z,57.76
2022-12-23T05:43:54.011Z,57.84
2022-12-23T05:46:26.224Z,57.60
2022-12-23T05:48:53.614Z,57.50
2022-12-23T05:51:20.451Z,57.51
2022-12-23T05:53:47.263Z,57.40
2022-12-23T05:56:14.249Z,57.32
2022-12-23T05:58:41.280Z,57.32
2022-12-23T06:01:08.090Z,57.23
2022-12-23T06:03:35.109Z,57.02
2022-12-23T06:06:02.209Z,57.04
2022-12-23T06:08:29.100Z,56.73
2022-12-23T06:10:55.893Z,56.67
2022-12-23T06:13:22.725Z,56.70
2022-12-23T06:15:49.535Z,56.58
2022-12-23T06:18:16.451Z,56.45
2022-12-23T06:20:47.375Z,56.62
2022-12-23T06:23:14.441Z,56.48
2022-12-23T06:25:41.195Z,56.25
2022-12-23T06:28:08.041Z,56.41
2022-12-23T06:30:35.329Z,56.38
2022-12-23T06:33:02.143Z,56.43
2022-12-23T06:35:28.922Z,56.38
2022-12-23T06:37:55.779Z,56.26
2022-12-23T06:40:22.599Z,56.39
2022-12-23T06:42:49.526Z,56.20
2022-12-23T06:45:16.369Z,56.09
2022-12-23T06:47:43.168Z,56.06
2022-12-23T06:50:10.418Z,56.17
2022-12-23T06:52:37.208Z,56.23
2022-12-23T06:55:04.446Z,56.28
2022-12-23T06:57:31.196Z,55.95
2022-12-23T06:59:57.968Z,56.22
2022-12-23T07:02:26.273Z,56.14
2022-12-23T07:04:53.116Z,56.15
2022-12-23T07:07:19.894Z,56.12
2022-12-23T07:09:46.668Z,55.93
2022-12-23T07:12:13.437Z,56.14
2022-12-23T07:14:40.265Z,56.26
2022-12-23T07:17:07.172Z,56.28
2022-12-23T07:19:34.135Z,56.40
2022-12-23T07:22:01.516Z,56.36
2022-12-23T07:24:28.329Z,56.50
2022-12-23T07:26:55.852Z,56.50
2022-12-23T07:29:22.654Z,56.50
2022-12-23T07:31:49.529Z,56.58
2022-12-23T07:34:16.418Z,56.60
2022-12-23T07:36:43.198Z,56.51
2022-12-23T07:39:10.208Z,56.41
2022-12-23T07:41:37.023Z,56.45
2022-12-23T07:44:08.681Z,56.50
2022-12-23T07:46:35.665Z,56.72
2022-12-23T07:49:02.547Z,56.53
2022-12-23T07:51:29.510Z,56.73
2022-12-23T07:53:56.356Z,56.58
2022-12-23T07:56:23.711Z,56.57
2022-12-23T07:58:52.097Z,56.55
2022-12-23T08:01:20.252Z,56.51
2022-12-23T08:03:47.833Z,56.60
2022-12-23T08:06:16.148Z,56.67
2022-12-23T08:08:45.249Z,56.54
2022-12-23T08:11:14.211Z,56.75
2022-12-23T08:13:44.565Z,56.84
2022-12-23T08:16:12.314Z,56.47
2022-12-23T08:18:41.224Z,56.51
2022-12-23T08:21:15.722Z,56.65
2022-12-23T08:23:43.892Z,56.53
2022-12-23T08:26:21.120Z,56.64
2022-12-23T08:28:49.176Z,56.44
2022-12-23T08:31:18.886Z,56.43
2022-12-23T08:33:50.556Z,56.30
2022-12-23T08:36:23.351Z,56.36
2022-12-23T08:38:53.668Z,56.16
2022-12-23T08:41:23.156Z,56.42
2022-12-23T08:43:50.139Z,55.89
2022-12-23T08:46:17.192Z,56.12
2022-12-23T08:48:49.182Z,55.96
2022-12-23T08:51:19.481Z,56.02
2022-12-23T08:53:47.324Z,56.07
2022-12-23T08:56:18.915Z,56.28
2022-12-23T08:58:47.713Z,56.29
2022-12-23T09:01:17.383Z,56.27
2022-12-23T09:03:45.254Z,56.30
2022-12-23T09:06:29.617Z,56.35
2022-12-23T09:08:58.001Z,56.10
2022-12-23T09:11:27.867Z,56.09
2022-12-23T09:13:56.518Z,56.15
2022-12-23T09:16:23.733Z,56.05
2022-12-23T09:18:50.620Z,56.06
2022-12-23T09:21:22.997Z,56.03
2022-12-23T09:23:50.855Z,56.19
2022-12-23T09:26:28.144Z,56.13
2022-12-23T09:28:56.107Z,56.24
2022-12-23T09:31:23.724Z,56.14
2022-12-23T09:33:53.005Z,56.21
2022-12-23T09:36:21.214Z,56.31
2022-12-23T09:38:53.810Z,56.31
2022-12-23T09:41:39.314Z,56.21
2022-12-23T09:44:49.098Z,56.47
2022-12-23T09:47:22.154Z,56.31
2022-12-23T09:49:58.435Z,56.33
2022-12-23T09:52:40.632Z,56.48
2022-12-23T09:55:10.928Z,56.34
2022-12-23T09:58:03.594Z,56.39
2022-12-23T10:00:39.740Z,56.41
2022-12-23T10:03:29.396Z,56.61
2022-12-23T10:06:25.088Z,56.79
2022-12-23T10:08:58.856Z,56.64
2022-12-23T10:11:31.317Z,56.58
2022-12-23T10:14:18.671Z,56.77
2022-12-23T10:16:53.884Z,56.96
2022-12-23T10:19:42.273Z,57.08
2022-12-23T10:22:41.193Z,57.02
2022-12-23T10:25:21.690Z,56.96
2022-12-23T10:27:48.463Z,56.82
2022-12-23T10:30:51.432Z,56.87
2022-12-23T10:33:26.436Z,56.97
2022-12-23T10:36:20.295Z,56.86
2022-12-23T10:39:00.771Z,56.98
2022-12-23T10:41:47.107Z,56.92
2022-12-23T10:44:38.674Z,57.17
2022-12-23T10:47:36.692Z,57.01
2022-12-23T10:50:27.935Z,57.24
2022-12-23T10:52:56.726Z,57.05
2022-12-23T10:55:33.518Z,57.24
2022-12-23T10:58:09.322Z,57.23
2022-12-23T11:00:40.141Z,57.29
2022-12-23T11:03:18.832Z,57.57
2022-12-23T11:05:49.506Z,57.35
2022-12-23T11:08:17.113Z,57.55
2022-12-23T11:10:44.145Z,57.59
2022-12-23T11:13:10.971Z,57.52
2022-12-23T11:15:41.492Z,57.51
2022-12-23T11:18:14.347Z,57.56
2022-12-23T11:20:45.862Z,57.49
2022-12-23T11:23:32.362Z,57.67
2022-12-23T11:26:08.699Z,57.66
2022-12-23T11:28:38.705Z,57.56
2022-12-23T11:31:11.604Z,57.47
2022-12-23T11:33:55.635Z,57.31
2022-12-23T11:36:25.411Z,57.50
2022-12-23T11:39:02.922Z,57.20
2022-12-23T11:41:44.478Z,57.40
2022-12-23T11:44:24.325Z,57.46
2022-12-23T11:46:51.519Z,57.33
2022-12-23T11:49:25.926Z,57.32
2022-12-23T11:52:04.844Z,57.51
2022-12-23T11:54:34.144Z,57.35
2022-12-23T11:57:04.839Z,57.32
2022-12-23T11:59:34.805Z,57.41
2022-12-23T12:02:04.987Z,57.34
2022-12-23T12:04:35.629Z,57.16
2022-12-23T12:07:04.328Z,57.26
2022-12-23T12:09:32.356Z,57.27
2022-12-23T12:12:06.419Z,57.43
2022-12-23T12:14:44.594Z,57.56
2022-12-23T12:17:18.959Z,57.58
2022-12-23T12:20:26.631Z,57.65
2022-12-23T12:23:00.520Z,57.71
2022-12-23T12:25:57.758Z,57.83
2022-12-23T12:28:32.688Z,57.82
2022-12-23T12:31:35.595Z,58.02
2022-12-23T12:34:05.975Z,58.06
2022-12-23T12:36:48.873Z,58.14
2022-12-23T12:39:34.034Z,58.26
2022-12-23T12:42:12.569Z,58.23
2022-12-23T12:45:21.237Z,58.36
2022-12-23T12:48:22.536Z,58.55
2022-12-23T12:51:21.398Z,58.42
2022-12-23T12:54:06.750Z,58.36
2022-12-23T12:56:57.897Z,58.48
2022-12-23T12:59:34.994Z,58.57
2022-12-23T13:02:28.888Z,58.55
2022-12-23T13:05:32.814Z,58.55
2022-12-23T13:08:45.909Z,58.50
2022-12-23T13:11:44.903Z,58.47
2022-12-23T13:14:45.898Z,58.55
2022-12-23T13:17:33.446Z,58.44
2022-12-23T13:20:25.584Z,58.50
2022-12-23T13:23:20.791Z,58.59
2022-12-23T13:25:57.765Z,58.33
2022-12-23T13:29:04.709Z,58.51
2022-12-23T13:31:49.804Z,58.38
2022-12-23T13:34:57.738Z,58.42
2022-12-23T13:37:43.059Z,58.50
2022-12-23T13:40:27.795Z,58.66
2022-12-23T13:43:00.112Z,58.30
2022-12-23T13:45:35.729Z,58.55
2022-12-23T13:48:06.780Z,58.32
2022-12-23T13:50:45.891Z,58.18
2022-12-23T13:53:31.970Z,58.62
2022-12-23T13:56:10.339Z,58.80
2022-12-23T13:58:39.882Z,58.51
2022-12-23T14:01:09.651Z,58.38
2022-12-23T14:03:38.358Z,58.57
2022-12-23T14:06:40.418Z,58.44
2022-12-23T14:09:07.328Z,58.41
2022-12-23T14:11:35.134Z,58.47
2022-12-23T14:14:06.013Z,58.30
2022-12-23T14:16:35.651Z,58.33
2022-12-23T14:19:29.623Z,58.37
2022-12-23T14:22:38.211Z,58.34
2022-12-23T14:25:47.690Z,58.53
2022-12-23T14:28:57.007Z,58.45
2022-12-23T14:31:41.808Z,58.44
2022-12-23T14:34:17.787Z,58.48
2022-12-23T14:37:20.578Z,58.63
2022-12-23T14:39:49.124Z,58.37
2022-12-23T14:42:42.018Z,58.47
2022-12-23T14:45:36.947Z,58.53
2022-12-23T14:48:47.872Z,58.67
2022-12-23T14:51:35.912Z,58.69
2022-12-23T14:54:02.654Z,58.54
2022-12-23T14:57:06.896Z,58.75
2022-12-23T14:59:58.550Z,58.73
2022-12-23T15:02:39.021Z,58.75
2022-12-23T15:05:06.821Z,58.42
2022-12-23T15:07:44.343Z,58.56
2022-12-23T15:10:22.458Z,58.63
2022-12-23T15:13:06.057Z,58.68
2022-12-23T15:15:33.674Z,58.65
2022-12-23T15:18:12.415Z,58.74
2022-12-23T15:20:39.933Z,58.76
2022-12-23T15:23:14.845Z,58.81
2022-12-23T15:25:48.517Z,58.95
2022-12-23T15:28:22.122Z,58.50
2022-12-23T15:30:54.203Z,58.63
2022-12-23T15:34:01.424Z,58.53
2022-12-23T15:36:12.977Z,58.41
2022-12-23T15:38:40.305Z,58.40
2022-12-23T15:41:17.288Z,58.39
2022-12-23T15:43:44.546Z,58.17
2022-12-23T15:46:29.801Z,58.24
2022-12-23T15:48:58.081Z,58.15
2022-12-23T15:52:05.918Z,58.17
2022-12-23T15:54:34.524Z,58.19
2022-12-23T15:57:03.080Z,57.94
2022-12-23T15:59:36.579Z,57.93
2022-12-23T16:03:00.249Z,58.08
2022-12-23T16:05:38.072Z,57.94
2022-12-23T16:08:13.286Z,57.85
2022-12-23T16:10:40.695Z,57.94
2022-12-23T16:13:19.847Z,57.77
2022-12-23T16:15:47.359Z,57.58
2022-12-23T16:18:31.626Z,57.65
2022-12-23T16:21:02.770Z,57.54
2022-12-23T16:23:36.466Z,57.53
2022-12-23T16:26:04.130Z,57.34
2022-12-23T16:28:53.343Z,57.40
2022-12-23T16:31:21.330Z,57.20
2022-12-23T16:33:50.801Z,57.19
2022-12-23T16:36:26.830Z,57.24
2022-12-23T16:38:59.985Z,57.33
2022-12-23T16:41:27.042Z,57.40
2022-12-23T16:43:53.938Z,57.10
2022-12-23T16:46:23.147Z,57.18
2022-12-23T16:49:04.637Z,57.22
2022-12-23T16:51:33.887Z,57.11
2022-12-23T16:54:01.847Z,56.88
2022-12-23T16:56:34.574Z,57.03
2022-12-23T16:59:01.527Z,56.67
2022-12-23T17:01:32.622Z,56.82
2022-12-23T17:04:00.014Z,57.12
2022-12-23T17:06:27.853Z,56.73
2022-12-23T17:08:56.537Z,56.56
2022-12-23T17:11:36.362Z,56.57
2022-12-23T17:14:09.114Z,56.60
2022-12-23T17:16:39.363Z,56.32
2022-12-23T17:19:06.163Z,56.54
2022-12-23T17:21:37.122Z,56.51
2022-12-23T17:24:09.687Z,56.63
2022-12-23T17:26:36.484Z,56.23
2022-12-23T17:29:05.296Z,56.34
2022-12-23T17:31:34.467Z,56.29
2022-12-23T17:34:02.056Z,56.37
2022-12-23T17:36:29.421Z,56.33
2022-12-23T17:38:56.416Z,56.23
2022-12-23T17:41:28.863Z,56.28
2022-12-23T17:43:55.991Z,56.20
2022-12-23T17:46:23.259Z,56.23
2022-12-23T17:48:50.148Z,56.19
2022-12-23T17:51:22.128Z,56.23
2022-12-23T17:53:56.930Z,56.28
2022-12-23T17:56:25.957Z,56.00
2022-12-23T17:58:52.769Z,56.42
2022-12-23T18:01:30.304Z,56.25
2022-12-23T18:03:59.135Z,56.13
2022-12-23T18:06:28.364Z,56.64
2022-12-23T18:08:58.826Z,56.74
2022-12-23T18:11:44.692Z,56.58
2022-12-23T18:14:19.934Z,56.60
2022-12-23T18:16:46.871Z,56.62
2022-12-23T18:19:20.069Z,56.67
2022-12-23T18:21:47.372Z,56.81
2022-12-23T18:24:14.445Z,56.96
2022-12-23T18:26:41.276Z,57.15
2022-12-23T18:29:08.048Z,57.29
2022-12-23T18:31:37.409Z,57.67
2022-12-23T18:34:04.527Z,57.74
2022-12-23T18:36:33.806Z,57.66
2022-12-23T18:39:01.043Z,58.00
2022-12-23T18:41:27.961Z,58.06
2022-12-23T18:43:55.054Z,58.27
2022-12-23T18:46:22.059Z,58.25
2022-12-23T18:48:49.420Z,58.34
2022-12-23T18:51:19.384Z,58.50
2022-12-23T18:53:47.099Z,58.70
2022-12-23T18:56:19.956Z,58.37
2022-12-23T18:58:47.123Z,58.54
2022-12-23T19:01:16.247Z,58.51
2022-12-23T19:03:43.725Z,58.51
2022-12-23T19:06:14.267Z,58.40
2022-12-23T19:08:42.784Z,58.30
2022-12-23T19:11:20.738Z,58.60
2022-12-23T19:13:47.987Z,58.39
2022-12-23T19:16:18.248Z,58.30
2022-12-23T19:18:46.906Z,58.10
2022-12-23T19:21:14.640Z,58.26
2022-12-23T19:23:42.380Z,58.09
2022-12-23T19:26:11.996Z,58.19
2022-12-23T19:28:41.159Z,58.03
2022-12-23T19:31:13.264Z,58.17
2022-12-23T19:33:42.538Z,58.04
2022-12-23T19:36:10.936Z,58.13
2022-12-23T19:38:37.999Z,57.91
2022-12-23T19:41:07.006Z,58.02
2022-12-23T19:43:35.907Z,58.07
2022-12-23T19:46:07.762Z,57.94
2022-12-23T19:48:35.281Z,57.96
2022-12-23T19:51:07.216Z,57.88
2022-12-23T19:53:34.890Z,58.13
2022-12-23T19:56:05.076Z,58.01
2022-12-23T19:58:35.360Z,57.90
2022-12-23T20:01:15.488Z,58.00
2022-12-23T20:03:43.771Z,57.94
2022-12-23T20:06:19.629Z,58.00
2022-12-23T20:08:46.975Z,57.63
2022-12-23T20:11:17.201Z,57.97
2022-12-23T20:13:44.844Z,57.86
2022-12-23T20:16:12.200Z,57.80
2022-12-23T20:18:39.230Z,57.94
2022-12-23T20:21:06.885Z,57.80
2022-12-23T20:23:34.256Z,57.96
2022-12-23T20:26:01.555Z,57.98
2022-12-23T20:28:29.203Z,58.29
2022-12-23T20:31:07.943Z,58.46
2022-12-23T20:33:36.958Z,58.35
2022-12-23T20:36:06.889Z,58.09
2022-12-23T20:38:35.580Z,58.33
2022-12-23T20:41:05.139Z,58.23
2022-12-23T20:43:34.505Z,58.00
2022-12-23T20:46:03.362Z,58.00
2022-12-23T20:48:34.031Z,57.79
2022-12-23T20:51:11.742Z,57.65
2022-12-23T20:53:38.834Z,57.37
2022-12-23T20:56:16.078Z,57.41
2022-12-23T20:58:55.551Z,57.24
2022-12-23T21:01:32.965Z,57.09
2022-12-23T21:04:03.599Z,57.01
2022-12-23T21:06:32.340Z,56.66
2022-12-23T21:09:00.291Z,56.74
2022-12-23T21:11:37.766Z,56.71
2022-12-23T21:14:07.144Z,56.51
2022-12-23T21:16:36.056Z,56.28
2022-12-23T21:19:03.943Z,56.05
2022-12-23T21:21:31.741Z,55.97
2022-12-23T21:24:03.949Z,55.97
2022-12-23T21:26:32.885Z,55.94
2022-12-23T21:29:01.812Z,55.82
2022-12-23T21:31:30.797Z,55.94
2022-12-23T21:33:58.739Z,55.92
2022-12-23T21:36:29.356Z,55.60
2022-12-23T21:38:56.808Z,55.38
2022-12-23T21:41:29.222Z,55.58
2022-12-23T21:43:58.037Z,55.32
2022-12-23T21:46:26.019Z,55.35
2022-12-23T21:48:53.246Z,55.12
2022-12-23T21:51:27.905Z,55.26
2022-12-23T21:53:59.301Z,54.98
2022-12-23T21:56:29.585Z,54.99
2022-12-23T21:58:58.975Z,54.91
2022-12-23T22:01:26.773Z,54.74
2022-12-23T22:03:55.421Z,54.58
2022-12-23T22:06:37.034Z,54.82
2022-12-23T22:09:06.089Z,54.88
2022-12-23T22:11:36.681Z,54.77
2022-12-23T22:14:06.953Z,54.52
2022-12-23T22:16:35.112Z,54.40
2022-12-23T22:19:03.957Z,54.46
2022-12-23T22:21:33.445Z,54.08
2022-12-23T22:24:00.401Z,54.11
2022-12-23T22:26:31.249Z,54.03
2022-12-23T22:29:01.216Z,53.96
2022-12-23T22:31:37.289Z,54.20
2022-12-23T22:34:05.047Z,54.03
2022-12-23T22:36:32.428Z,53.93
2022-12-23T22:39:01.148Z,53.95
2022-12-23T22:41:30.359Z,54.12
2022-12-23T22:43:58.217Z,53.70
2022-12-23T22:46:26.537Z,53.84
2022-12-23T22:48:54.013Z,53.69
2022-12-23T22:51:24.609Z,53.47
2022-12-23T22:53:51.875Z,53.45
2022-12-23T22:56:20.609Z,53.54
2022-12-23T22:58:47.699Z,53.68
2022-12-23T23:01:30.983Z,53.45
2022-12-23T23:04:00.655Z,53.55
2022-12-23T23:06:37.648Z,54.14
2022-12-23T23:09:07.173Z,53.51
2022-12-23T23:11:34.305Z,53.36
2022-12-23T23:14:02.690Z,53.55
2022-12-23T23:16:29.770Z,53.21
2022-12-23T23:18:58.531Z,53.32
2022-12-23T23:21:25.883Z,53.25
2022-12-23T23:23:52.913Z,53.08
2022-12-23T23:26:20.665Z,53.05
2022-12-23T23:28:48.092Z,52.82
2022-12-23T23:34:01.767Z,52.65
2022-12-23T23:36:28.663Z,52.45
2022-12-23T23:38:55.496Z,52.60
2022-12-23T23:41:23.581Z,52.36
2022-12-23T23:43:51.938Z,52.27
2022-12-23T23:46:18.994Z,52.37
2022-12-23T23:48:45.935Z,52.19
2022-12-23T23:51:12.900Z,52.13
2022-12-23T23:53:40.236Z,52.00
2022-12-23T23:56:08.346Z,51.89
2022-12-23T23:58:36.570Z,51.85
